Time;durP1;ratioP1;P1;durP2;ratioP2;P2;SDS_P1;SDS_P2;PMS_P1;PMS_P2;Temp;Humidity;BMP_temperature;BMP_pressure;BME280_temperature;BME280_humidity;BME280_pressure;Samples;Min_cycle;Max_cycle;Signal;HPM_P1;HPM_P2
2023/10/29 00:00:00;;;;;;;;;;;;;;;16.46;73.57;99286.63;317434;31;945;-78
2023/10/29 00:00:10;;;;;;;;;;;;;;;16.46;73.31;99298.03;316070;31;2513;-79
2023/10/29 00:00:21;;;;;;;;;;;;;;;16.45;73.32;99293.72;314383;31;2148;-78
2023/10/29 00:00:31;;;;;;;;;;;;;;;16.46;73.25;99298.03;309671;31;1418;-78
2023/10/29 00:00:41;;;;;;;;;;;;;;;16.47;73.08;99296.22;314655;31;2621;-78
2023/10/29 00:00:51;;;;;;;;;;;;;;;16.46;73.10;99295.38;311292;31;3537;-79
2023/10/29 00:01:02;;;;;;;;;;;;;;;16.47;73.23;99291.78;307433;32;1239;-78
2023/10/29 00:01:12;;;;;;;;;;;;;;;16.48;73.27;99297.91;308027;31;4178;-78
2023/10/29 00:01:24;;;;;;;;;;;;;;;16.47;73.19;99297.06;307144;31;3746;-78
2023/10/29 00:01:34;;;;;;;;;;;;;;;16.48;73.30;99292.63;305074;32;4359;-78
2023/10/29 00:01:44;;;;;;;;;;;;;;;16.47;73.10;99291.78;298898;32;3426;-78
2023/10/29 00:01:55;;;;;;;;;;;;;;;16.48;73.00;99290.00;297462;32;3851;-78
2023/10/29 00:02:05;;;;;;;;;;;;;;;16.48;72.95;99290.84;295583;32;3670;-78
2023/10/29 00:02:16;;;;;;;;;;;;;;;16.47;72.94;99294.44;294988;33;3490;-78
2023/10/29 00:02:26;;;;;;;;;;;;;;;16.47;72.96;99290.94;294719;33;3491;-78
2023/10/29 00:02:36;;;;;;;;;;;;;;;16.48;72.72;99295.28;295335;32;3138;-78
2023/10/29 00:02:47;;;;;;;;;;;;;;;16.47;73.06;99296.22;297342;33;1341;-79
2023/10/29 00:02:57;;;;;;;;;;;;;;;16.48;73.04;99287.34;297637;33;5304;-78
2023/10/29 00:03:07;;;;;;;;;;;;;;;16.47;72.93;99296.22;293260;33;6241;-79
2023/10/29 00:03:18;;;;;;;;;;;;;;;16.46;72.99;99291.94;290409;34;1075;-79
2023/10/29 00:03:28;;;;;;;;;;;;;;;16.45;72.99;99295.53;293111;33;6291;-78
2023/10/29 00:03:39;;;;;;;;;;;;;;;16.44;73.08;99296.47;291905;33;5835;-78
2023/10/29 00:03:50;;;;;;;;;;;;;;;16.45;73.08;99298.16;289340;33;7120;-78
2023/10/29 00:04:00;;;;;;;;;;;;;;;16.44;73.22;99297.31;290667;34;1319;-78
2023/10/29 00:04:10;;;;;;;;;;;;;;;16.44;73.19;99301.75;288720;33;5933;-78
2023/10/29 00:04:20;;;;;;;;;;;;;;;16.44;73.14;99293.84;287330;34;4930;-78
2023/10/29 00:04:35;;;;;;;;;;;;;;;16.44;73.11;99301.75;286578;34;1365;-78
2023/10/29 00:04:46;;;;;;;;;;;;;;;16.45;73.06;99298.16;286647;34;1364;-78
2023/10/29 00:04:56;;;;;;;;;;;;;;;16.44;73.13;99293.84;285318;34;5775;-78
2023/10/29 00:05:06;;;;;;;;;;;;;;;16.43;73.15;99300.91;282903;34;7497;-79
2023/10/29 00:05:18;;;;;;;;;;;;;;;16.44;73.28;99297.31;282317;35;1238;-79
2023/10/29 00:05:28;;;;;;;;;;;;;;;16.44;73.17;99297.31;277739;35;7812;-79
2023/10/29 00:05:40;;;;;;;;;;;;;;;16.43;73.17;99300.91;275959;35;9148;-78
2023/10/29 00:05:50;;;;;;;;;;;;;;;16.42;73.03;99301.00;273776;35;10194;-78
2023/10/29 00:06:00;;;;;;;;;;;;;;;16.41;73.25;99297.53;275806;35;867;-78
2023/10/29 00:07:55;;;;;;;;;;;;;;;16.41;73.34;99301.97;2490494;27;19937;-77
2023/10/29 00:08:09;;;;;;;;;;;;;;;16.41;73.40;99304.59;354701;27;1445;-79
2023/10/29 00:08:19;;;;;;;;;;;;;;;16.39;73.59;99301.22;353578;28;1413;-78
2023/10/29 00:08:29;;;;;;;;;;;;;;;16.39;73.58;99295.94;350625;28;1267;-79
2023/10/29 00:08:39;;;;;;;;;;;;;;;16.41;73.46;99307.25;349192;28;1302;-79
2023/10/29 00:08:50;;;;;;;;;;;;;;;16.40;73.74;99295.00;347632;28;1220;-78
2023/10/29 00:09:00;;;;;;;;;;;;;;;16.41;73.51;99302.81;348947;28;1302;-78
2023/10/29 00:09:10;;;;;;;;;;;;;;;16.43;73.56;99305.34;350494;28;1321;-78
2023/10/29 00:09:21;;;;;;;;;;;;;;;16.40;73.31;99301.13;350333;28;1062;-78
2023/10/29 00:09:31;;;;;;;;;;;;;;;16.40;73.53;99310.84;347355;28;1304;-78
2023/10/29 00:09:41;;;;;;;;;;;;;;;16.40;73.52;99295.00;346355;28;1027;-78
2023/10/29 00:09:51;;;;;;;;;;;;;;;16.39;73.60;99301.22;349085;28;1310;-79
2023/10/29 00:10:02;;;;;;;;;;;;;;;16.40;73.61;99305.56;349473;28;829;-78
2023/10/29 00:10:12;;;;;;;;;;;;;;;16.39;73.48;99303.88;349445;28;844;-78
2023/10/29 00:10:22;;;;;;;;;;;;;;;16.37;73.42;99306.63;348037;28;743;-78
2023/10/29 00:10:32;;;;;;;;;;;;;;;16.37;73.64;99308.41;346865;28;1169;-78
2023/10/29 00:10:43;;;;;;;;;;;;;;;16.35;73.62;99303.25;346606;28;907;-78
2023/10/29 00:10:53;;;;;;;;;;;;;;;16.33;73.66;99304.28;346306;28;872;-78
2023/10/29 00:11:03;;;;;;;;;;;;;;;16.34;73.72;99308.63;347463;28;1376;-78
2023/10/29 00:11:13;;;;;;;;;;;;;;;16.35;73.62;99307.66;345704;28;2915;-78
2023/10/29 00:11:24;;;;;;;;;;;;;;;16.35;73.64;99312.97;345340;28;3125;-78
2023/10/29 00:11:34;;;;;;;;;;;;;;;16.35;73.80;99307.66;345284;28;3134;-77
2023/10/29 00:11:44;;;;;;;;;;;;;;;16.35;73.89;99308.53;344908;28;1214;-77
2023/10/29 00:11:54;;;;;;;;;;;;;;;16.35;73.89;99307.66;345955;28;3329;-77
2023/10/29 00:12:05;;;;;;;;;;;;;;;16.35;73.71;99312.97;345465;28;1304;-78
2023/10/29 00:12:16;;;;;;;;;;;;;;;16.35;73.68;99307.66;344656;28;1385;-78
2023/10/29 00:12:26;;;;;;;;;;;;;;;16.35;73.84;99316.44;343606;28;1223;-78
2023/10/29 00:12:36;;;;;;;;;;;;;;;16.35;73.79;99302.38;346147;28;1235;-78
2023/10/29 00:12:46;;;;;;;;;;;;;;;16.34;73.93;99312.09;344902;28;1447;-78
2023/10/29 00:12:57;;;;;;;;;;;;;;;16.36;74.02;99306.72;346269;28;760;-78
2023/10/29 00:13:07;;;;;;;;;;;;;;;16.35;74.12;99312.97;346721;28;1125;-78
2023/10/29 00:13:17;;;;;;;;;;;;;;;16.34;74.02;99305.97;346225;28;1026;-78
2023/10/29 00:13:27;;;;;;;;;;;;;;;16.35;73.79;99312.97;348978;28;1374;-78
2023/10/29 00:13:38;;;;;;;;;;;;;;;16.34;73.82;99313.91;348430;28;1261;-78
2023/10/29 00:13:48;;;;;;;;;;;;;;;16.34;73.98;99319.19;347080;28;988;-78
2023/10/29 00:13:59;;;;;;;;;;;;;;;16.33;73.94;99314.84;346135;28;1380;-78
2023/10/29 00:14:09;;;;;;;;;;;;;;;16.32;74.03;99308.72;346298;28;1281;-78
2023/10/29 00:14:20;;;;;;;;;;;;;;;16.32;74.16;99313.16;345148;28;1162;-78
2023/10/29 00:14:30;;;;;;;;;;;;;;;16.32;74.14;99313.16;340828;28;1329;-78
2023/10/29 00:14:40;;;;;;;;;;;;;;;16.32;73.98;99310.53;344886;28;1206;-78
2023/10/29 00:14:50;;;;;;;;;;;;;;;16.29;74.10;99315.06;344771;28;1309;-78
2023/10/29 00:15:01;;;;;;;;;;;;;;;16.29;73.98;99317.72;344825;28;1227;-78
2023/10/29 00:15:11;;;;;;;;;;;;;;;16.27;74.01;99319.59;342243;28;1336;-78
2023/10/29 00:15:21;;;;;;;;;;;;;;;16.27;74.26;99310.84;343492;28;1294;-78
2023/10/29 00:15:32;;;;;;;;;;;;;;;16.27;74.38;99311.69;346082;28;1308;-78
2023/10/29 00:15:42;;;;;;;;;;;;;;;16.28;74.50;99316.00;343606;28;1269;-78
2023/10/29 00:15:52;;;;;;;;;;;;;;;16.28;74.25;99317.81;338096;29;1383;-78
2023/10/29 00:16:02;;;;;;;;;;;;;;;16.27;74.26;99316.97;338021;28;1250;-78
2023/10/29 00:16:13;;;;;;;;;;;;;;;16.27;74.35;99311.69;340880;29;1206;-78
2023/10/29 00:16:23;;;;;;;;;;;;;;;16.26;74.10;99317.06;341658;28;1275;-78
2023/10/29 00:16:34;;;;;;;;;;;;;;;16.27;74.01;99316.97;341400;28;1611;-78
2023/10/29 00:16:45;;;;;;;;;;;;;;;16.27;73.96;99324.88;339418;28;1981;-78
2023/10/29 00:16:55;;;;;;;;;;;;;;;16.27;73.91;99313.47;339550;29;1333;-78
2023/10/29 00:17:05;;;;;;;;;;;;;;;16.26;74.03;99323.19;338992;29;862;-78
2023/10/29 00:17:16;;;;;;;;;;;;;;;16.25;74.14;99321.50;339646;29;1320;-78
2023/10/29 00:17:26;;;;;;;;;;;;;;;16.25;74.23;99324.16;339690;29;1273;-78
2023/10/29 00:17:36;;;;;;;;;;;;;;;16.25;74.23;99321.50;339739;29;1383;-78
2023/10/29 00:17:47;;;;;;;;;;;;;;;16.26;73.91;99314.44;337027;29;1758;-78
2023/10/29 00:17:57;;;;;;;;;;;;;;;16.24;73.98;99317.19;335686;29;1603;-78
2023/10/29 00:18:12;;;;;;;;;;;;;;;16.24;73.95;99322.47;336061;29;1910;-78
2023/10/29 00:18:22;;;;;;;;;;;;;;;16.23;74.08;99320.78;337963;29;1446;-78
2023/10/29 00:18:33;;;;;;;;;;;;;;;16.24;74.08;99321.63;335647;29;2147;-78
2023/10/29 00:18:43;;;;;;;;;;;;;;;16.24;73.95;99321.63;334444;29;1239;-79
2023/10/29 00:18:53;;;;;;;;;;;;;;;16.24;74.21;99321.63;336467;29;2094;-78
2023/10/29 00:19:03;;;;;;;;;;;;;;;16.22;73.97;99323.50;337120;29;1588;-78
2023/10/29 00:19:14;;;;;;;;;;;;;;;16.23;74.12;99320.78;338272;29;1228;-79
2023/10/29 00:19:24;;;;;;;;;;;;;;;16.23;73.99;99320.78;335621;29;1308;-79
2023/10/29 00:19:34;;;;;;;;;;;;;;;16.21;73.78;99314.75;333687;29;1476;-79
2023/10/29 00:19:45;;;;;;;;;;;;;;;16.18;73.70;99317.59;332972;29;1872;-79
2023/10/29 00:19:55;;;;;;;;;;;;;;;16.17;73.80;99321.19;330696;29;1335;-79
2023/10/29 00:20:06;;;;;;;;;;;;;;;16.17;73.93;99318.53;327357;29;2368;-79
2023/10/29 00:20:16;;;;;;;;;;;;;;;16.17;74.01;99315.91;329527;29;2354;-78
2023/10/29 00:20:26;;;;;;;;;;;;;;;16.17;74.28;99320.34;329076;30;2776;-78
2023/10/29 00:20:36;;;;;;;;;;;;;;;16.18;74.14;99322.88;326951;29;3481;-78
2023/10/29 00:20:47;;;;;;;;;;;;;;;16.19;74.26;99324.56;327778;30;3291;-78
2023/10/29 00:20:57;;;;;;;;;;;;;;;16.19;74.31;99324.56;326698;30;3399;-78
2023/10/29 00:21:07;;;;;;;;;;;;;;;16.19;74.15;99324.56;327613;30;5331;-80
2023/10/29 00:21:17;;;;;;;;;;;;;;;16.19;74.12;99324.56;329623;29;1766;-79
2023/10/29 00:21:30;;;;;;;;;;;;;;;16.18;74.20;99322.88;329710;30;863;-78
2023/10/29 00:21:40;;;;;;;;;;;;;;;16.18;74.22;99320.25;330969;29;1289;-80
2023/10/29 00:21:51;;;;;;;;;;;;;;;16.18;74.09;99322.88;329719;29;1834;-80
2023/10/29 00:22:01;;;;;;;;;;;;;;;16.18;74.19;99322.88;327928;30;2476;-78
2023/10/29 00:22:11;;;;;;;;;;;;;;;16.18;74.02;99325.50;326047;30;1459;-78
2023/10/29 00:22:22;;;;;;;;;;;;;;;16.17;74.20;99329.09;322382;30;3248;-79
2023/10/29 00:22:32;;;;;;;;;;;;;;;16.17;74.15;99326.47;320776;30;2996;-79
2023/10/29 00:22:43;;;;;;;;;;;;;;;16.18;74.20;99325.50;319298;30;1454;-79
2023/10/29 00:22:53;;;;;;;;;;;;;;;16.18;74.13;99322.88;321165;30;2988;-78
2023/10/29 00:23:03;;;;;;;;;;;;;;;16.18;74.26;99324.66;318914;30;2952;-78
2023/10/29 00:23:13;;;;;;;;;;;;;;;16.17;74.25;99321.19;316526;31;743;-78
2023/10/29 00:23:23;;;;;;;;;;;;;;;16.16;74.25;99322.13;318233;30;3052;-78
2023/10/29 00:23:34;;;;;;;;;;;;;;;16.18;74.45;99322.03;313645;31;2345;-80
2023/10/29 00:23:44;;;;;;;;;;;;;;;16.16;74.45;99324.78;312817;31;1202;-79
2023/10/29 00:23:54;;;;;;;;;;;;;;;16.15;74.59;99328.38;311310;31;2453;-78
2023/10/29 00:24:05;;;;;;;;;;;;;;;16.13;74.61;99324.97;312485;31;2660;-78
2023/10/29 00:24:15;;;;;;;;;;;;;;;16.12;74.49;99323.28;313560;31;3251;-78
2023/10/29 00:24:25;;;;;;;;;;;;;;;16.14;74.27;99328.47;314252;31;1115;-78
2023/10/29 00:24:35;;;;;;;;;;;;;;;16.13;74.33;99327.63;308255;31;4225;-78
2023/10/29 00:24:46;;;;;;;;;;;;;;;16.13;74.15;99334.69;308068;31;4538;-78
2023/10/29 00:24:56;;;;;;;;;;;;;;;16.13;74.25;99329.41;310710;31;1392;-78
2023/10/29 00:25:06;;;;;;;;;;;;;;;16.12;74.25;99331.22;308655;31;4503;-78
2023/10/29 00:25:16;;;;;;;;;;;;;;;16.11;74.26;99324.25;308355;31;3918;-78
2023/10/29 00:25:27;;;;;;;;;;;;;;;16.12;74.15;99335.66;310753;31;1306;-78
2023/10/29 00:25:37;;;;;;;;;;;;;;;16.13;74.34;99327.63;306601;32;4022;-77
2023/10/29 00:25:47;;;;;;;;;;;;;;;16.13;74.22;99326.78;302735;32;3223;-78
2023/10/29 00:25:57;;;;;;;;;;;;;;;16.12;73.85;99336.50;302232;32;722;-78
2023/10/29 00:26:08;;;;;;;;;;;;;;;16.13;74.01;99339.97;302103;32;3164;-78
2023/10/29 00:26:18;;;;;;;;;;;;;;;16.12;73.64;99333.84;302128;32;4762;-78
2023/10/29 00:26:28;;;;;;;;;;;;;;;16.13;73.79;99332.06;304459;32;829;-79
2023/10/29 00:26:38;;;;;;;;;;;;;;;16.12;73.68;99331.22;300188;32;4487;-78
2023/10/29 00:26:49;;;;;;;;;;;;;;;16.14;73.76;99334.59;299152;32;5864;-78
2023/10/29 00:26:59;;;;;;;;;;;;;;;16.14;73.70;99331.94;301184;32;937;-78
2023/10/29 00:27:09;;;;;;;;;;;;;;;16.14;73.73;99331.09;297948;32;6889;-78
2023/10/29 00:27:19;;;;;;;;;;;;;;;16.15;73.55;99320.44;295408;33;6556;-78
2023/10/29 00:27:30;;;;;;;;;;;;;;;16.15;73.50;99328.38;294873;33;2103;-78
2023/10/29 00:27:40;;;;;;;;;;;;;;;16.15;73.66;99327.53;289333;34;1268;-77
2023/10/29 00:27:51;;;;;;;;;;;;;;;16.15;73.68;99333.66;289388;33;5242;-77
2023/10/29 00:28:01;;;;;;;;;;;;;;;16.16;73.43;99335.34;290606;33;4263;-79
2023/10/29 00:28:11;;;;;;;;;;;;;;;16.16;73.62;99337.97;290648;34;1037;-78
2023/10/29 00:28:21;;;;;;;;;;;;;;;16.16;73.59;99335.34;288273;34;5056;-78
2023/10/29 00:28:32;;;;;;;;;;;;;;;16.15;73.61;99333.66;287332;34;7337;-79
2023/10/29 00:28:42;;;;;;;;;;;;;;;16.15;73.66;99333.66;286664;34;1357;-78
2023/10/29 00:28:52;;;;;;;;;;;;;;;16.14;73.90;99337.22;282152;34;7129;-78
2023/10/29 00:29:02;;;;;;;;;;;;;;;16.15;73.85;99338.09;278987;34;9171;-78
2023/10/29 00:29:13;;;;;;;;;;;;;;;16.15;73.90;99333.66;281257;35;783;-78
2023/10/29 00:31:01;;;;;;;;;;;;;;;16.10;73.64;99335.75;2491934;27;19941;-77
2023/10/29 00:31:11;;;;;;;;;;;;;;;16.08;73.86;99332.38;353174;28;1230;-77
2023/10/29 00:31:22;;;;;;;;;;;;;;;16.07;73.97;99335.97;351693;28;1400;-77
2023/10/29 00:31:32;;;;;;;;;;;;;;;16.07;73.91;99333.31;349010;28;1233;-77
2023/10/29 00:31:42;;;;;;;;;;;;;;;16.06;74.12;99334.25;349061;28;1322;-77
2023/10/29 00:31:52;;;;;;;;;;;;;;;16.08;nan;99342.09;347483;28;1208;-77
2023/10/29 00:32:03;;;;;;;;;;;;;;;16.06;73.93;99336.91;350289;28;1351;-77
2023/10/29 00:32:14;;;;;;;;;;;;;;;16.05;73.92;99347.56;350401;28;1178;-77
2023/10/29 00:32:24;;;;;;;;;;;;;;;16.05;74.18;99337.84;350403;28;863;-77
2023/10/29 00:32:34;;;;;;;;;;;;;;;16.06;74.02;99339.53;350228;28;1366;-77
2023/10/29 00:32:45;;;;;;;;;;;;;;;16.05;74.36;99342.28;350427;28;1301;-78
2023/10/29 00:32:55;;;;;;;;;;;;;;;16.05;74.21;99339.66;349453;28;1957;-79
2023/10/29 00:33:06;;;;;;;;;;;;;;;16.05;74.22;99343.13;351102;28;1237;-78
2023/10/29 00:33:16;;;;;;;;;;;;;;;16.06;74.48;99339.53;350572;28;1196;-79
2023/10/29 00:33:26;;;;;;;;;;;;;;;16.06;74.51;99343.97;350727;28;1210;-79
2023/10/29 00:33:37;;;;;;;;;;;;;;;16.07;74.63;99340.38;349437;28;797;-79
2023/10/29 00:33:47;;;;;;;;;;;;;;;16.07;74.63;99346.53;352260;28;1223;-79
2023/10/29 00:33:57;;;;;;;;;;;;;;;16.08;74.71;99347.38;348941;28;1369;-79
2023/10/29 00:34:07;;;;;;;;;;;;;;;16.09;74.83;99347.25;350731;28;1360;-78
2023/10/29 00:34:18;;;;;;;;;;;;;;;16.08;74.73;99340.28;347555;28;1278;-79
2023/10/29 00:34:28;;;;;;;;;;;;;;;16.08;74.73;99342.94;350236;28;1239;-78
2023/10/29 00:34:38;;;;;;;;;;;;;;;16.09;74.69;99344.63;348819;28;1367;-78
2023/10/29 00:34:48;;;;;;;;;;;;;;;16.08;74.76;99348.22;346640;28;1456;-78
2023/10/29 00:34:59;;;;;;;;;;;;;;;16.09;74.97;99349.91;348590;28;1235;-78
2023/10/29 00:35:09;;;;;;;;;;;;;;;16.06;74.87;99350.09;348280;28;1253;-78
2023/10/29 00:35:19;;;;;;;;;;;;;;;16.07;74.94;99350.94;346377;28;1216;-78
2023/10/29 00:35:29;;;;;;;;;;;;;;;16.06;74.92;99350.09;347524;28;973;-78
2023/10/29 00:35:39;;;;;;;;;;;;;;;16.07;74.99;99343.03;348279;28;855;-78
2023/10/29 00:35:50;;;;;;;;;;;;;;;16.06;75.16;99350.09;349197;28;1286;-79
2023/10/29 00:36:00;;;;;;;;;;;;;;;16.07;75.12;99349.16;349326;28;1200;-79
2023/10/29 00:36:10;;;;;;;;;;;;;;;16.06;75.07;99350.09;346650;28;1296;-79
2023/10/29 00:36:21;;;;;;;;;;;;;;;16.05;75.14;99353.69;349281;28;1299;-79
2023/10/29 00:36:31;;;;;;;;;;;;;;;16.07;75.24;99341.25;347329;28;1110;-78
2023/10/29 00:36:41;;;;;;;;;;;;;;;16.06;75.22;99355.38;349241;28;1324;-78
2023/10/29 00:36:51;;;;;;;;;;;;;;;16.06;74.88;99346.63;344591;28;1272;-77
2023/10/29 00:37:03;;;;;;;;;;;;;;;16.05;75.11;99348.41;343576;28;1025;-77
2023/10/29 00:37:13;;;;;;;;;;;;;;;16.06;75.26;99349.25;347055;28;877;-77
2023/10/29 00:37:23;;;;;;;;;;;;;;;16.05;75.21;99350.22;347937;28;1360;-77
2023/10/29 00:37:33;;;;;;;;;;;;;;;16.05;75.18;99348.41;342053;28;1371;-77
2023/10/29 00:37:44;;;;;;;;;;;;;;;16.05;74.96;99350.22;345092;28;1351;-77
2023/10/29 00:37:54;;;;;;;;;;;;;;;16.04;75.09;99341.44;345324;28;937;-77
2023/10/29 00:38:04;;;;;;;;;;;;;;;16.03;75.13;99354.78;347669;28;1184;-77
2023/10/29 00:38:14;;;;;;;;;;;;;;;16.03;74.98;99347.66;346183;28;1235;-77
2023/10/29 00:38:25;;;;;;;;;;;;;;;16.03;75.23;99354.78;344867;28;1291;-77
2023/10/29 00:38:35;;;;;;;;;;;;;;;16.02;75.19;99353.94;346095;28;1195;-77
2023/10/29 00:38:45;;;;;;;;;;;;;;;16.01;75.32;99352.25;347675;28;831;-77
2023/10/29 00:38:55;;;;;;;;;;;;;;;16.01;75.45;99352.25;345275;28;3170;-77
2023/10/29 00:39:07;;;;;;;;;;;;;;;16.00;75.52;99355.81;340434;28;3160;-77
2023/10/29 00:39:17;;;;;;;;;;;;;;;16.00;75.35;99355.81;338059;29;3344;-77
2023/10/29 00:39:27;;;;;;;;;;;;;;;16.00;75.35;99354.97;343560;28;1352;-77
2023/10/29 00:39:38;;;;;;;;;;;;;;;15.99;75.57;99354.13;340468;28;1442;-77
2023/10/29 00:39:48;;;;;;;;;;;;;;;15.97;75.60;99361.31;344912;28;1926;-77
2023/10/29 00:39:58;;;;;;;;;;;;;;;15.96;75.46;99356.97;344873;28;1237;-77
2023/10/29 00:40:09;;;;;;;;;;;;;;;15.95;75.67;99353.50;341986;28;1351;-77
2023/10/29 00:40:19;;;;;;;;;;;;;;;15.94;75.68;99350.97;339553;29;1228;-77
2023/10/29 00:40:30;;;;;;;;;;;;;;;15.92;75.55;99358.97;339512;29;1301;-77
2023/10/29 00:40:41;;;;;;;;;;;;;;;15.93;75.88;99360.66;343540;28;1308;-77
2023/10/29 00:40:51;;;;;;;;;;;;;;;15.92;75.98;99358.97;342034;28;1426;-77
2023/10/29 00:41:01;;;;;;;;;;;;;;;15.92;75.94;99350.22;340901;29;864;-77
2023/10/29 00:41:11;;;;;;;;;;;;;;;15.93;75.93;99359.81;340826;28;1716;-77
2023/10/29 00:41:22;;;;;;;;;;;;;;;15.92;75.81;99351.06;337093;29;2040;-77
2023/10/29 00:41:32;;;;;;;;;;;;;;;15.94;75.69;99356.22;339356;29;1108;-77
2023/10/29 00:41:42;;;;;;;;;;;;;;;15.94;75.37;99356.22;340434;28;1981;-77
2023/10/29 00:41:52;;;;;;;;;;;;;;;15.93;75.65;99355.38;340329;29;2132;-78
2023/10/29 00:42:03;;;;;;;;;;;;;;;15.93;75.59;99359.81;337082;29;755;-77
2023/10/29 00:42:13;;;;;;;;;;;;;;;15.90;75.79;99355.59;339181;29;1685;-77
2023/10/29 00:42:23;;;;;;;;;;;;;;;15.90;75.81;99365.31;338474;29;1390;-77
2023/10/29 00:42:34;;;;;;;;;;;;;;;15.90;75.66;99360.03;335638;29;1236;-77
2023/10/29 00:42:44;;;;;;;;;;;;;;;15.91;75.84;99359.06;336786;29;1260;-79
2023/10/29 00:42:54;;;;;;;;;;;;;;;15.88;75.69;99356.66;339600;29;1778;-77
2023/10/29 00:43:04;;;;;;;;;;;;;;;15.88;75.76;99356.66;338255;29;1355;-77
2023/10/29 00:43:15;;;;;;;;;;;;;;;15.88;75.94;99362.75;337271;29;1954;-77
2023/10/29 00:43:25;;;;;;;;;;;;;;;15.89;75.70;99363.63;335716;29;2152;-77
2023/10/29 00:43:41;;;;;;;;;;;;;;;15.89;75.71;99353.06;335225;29;2570;-77
2023/10/29 00:43:51;;;;;;;;;;;;;;;15.87;75.93;99355.78;330563;29;2737;-77
2023/10/29 00:44:01;;;;;;;;;;;;;;;15.87;76.08;99360.22;329054;30;1512;-77
2023/10/29 00:44:11;;;;;;;;;;;;;;;15.89;75.95;99363.63;327376;29;2670;-77
2023/10/29 00:44:22;;;;;;;;;;;;;;;15.87;75.79;99360.22;323116;30;1770;-77
2023/10/29 00:44:32;;;;;;;;;;;;;;;15.86;76.00;99355.91;323441;30;1200;-77
2023/10/29 00:44:42;;;;;;;;;;;;;;;15.86;76.02;99362.03;323023;30;1470;-77
2023/10/29 00:44:52;;;;;;;;;;;;;;;15.85;76.09;99356.84;318645;30;2099;-77
2023/10/29 00:45:03;;;;;;;;;;;;;;;15.86;76.28;99355.91;316218;31;1267;-77
2023/10/29 00:45:13;;;;;;;;;;;;;;;15.86;76.33;99358.53;320985;30;2678;-77
2023/10/29 00:45:24;;;;;;;;;;;;;;;15.86;76.04;99359.38;316850;30;2617;-77
2023/10/29 00:45:34;;;;;;;;;;;;;;;15.87;76.02;99363.72;315233;31;1219;-77
2023/10/29 00:45:46;;;;;;;;;;;;;;;15.86;76.03;99363.81;313612;31;3230;-77
2023/10/29 00:45:57;;;;;;;;;;;;;;;15.84;76.06;99358.63;311367;31;3500;-77
2023/10/29 00:46:07;;;;;;;;;;;;;;;15.84;76.16;99358.63;313493;31;3132;-77
2023/10/29 00:46:17;;;;;;;;;;;;;;;15.84;76.20;99357.78;316410;31;877;-78
2023/10/29 00:46:27;;;;;;;;;;;;;;;15.83;76.26;99358.75;312123;31;3400;-78
2023/10/29 00:46:40;;;;;;;;;;;;;;;15.84;76.45;99357.78;311058;31;2498;-78
2023/10/29 00:46:50;;;;;;;;;;;;;;;15.84;76.23;99358.63;311475;31;2287;-78
2023/10/29 00:47:01;;;;;;;;;;;;;;;15.85;76.36;99356.84;311816;31;1316;-78
2023/10/29 00:47:11;;;;;;;;;;;;;;;15.84;76.41;99355.16;308275;31;2971;-78
2023/10/29 00:47:21;;;;;;;;;;;;;;;15.84;76.20;99355.16;305928;31;3687;-78
2023/10/29 00:47:31;;;;;;;;;;;;;;;15.85;76.24;99357.69;306425;32;1227;-78
2023/10/29 00:47:42;;;;;;;;;;;;;;;15.86;76.18;99358.53;304918;32;3687;-78
2023/10/29 00:47:52;;;;;;;;;;;;;;;15.86;76.30;99364.66;303793;32;4179;-78
2023/10/29 00:48:02;;;;;;;;;;;;;;;15.86;76.14;99358.53;303342;32;1284;-78
2023/10/29 00:48:13;;;;;;;;;;;;;;;15.87;76.19;99362.88;307099;31;5073;-78
2023/10/29 00:48:24;;;;;;;;;;;;;;;15.87;76.29;99360.22;305151;32;4370;-78
2023/10/29 00:48:34;;;;;;;;;;;;;;;15.85;76.46;99362.13;305261;32;899;-78
2023/10/29 00:48:45;;;;;;;;;;;;;;;15.85;76.42;99356.84;303691;32;4576;-78
2023/10/29 00:48:55;;;;;;;;;;;;;;;15.85;76.63;99362.13;302155;32;3506;-78
2023/10/29 00:49:06;;;;;;;;;;;;;;;15.86;76.69;99362.03;301875;32;3214;-78
2023/10/29 00:49:16;;;;;;;;;;;;;;;15.87;76.71;99354.94;303351;32;840;-78
2023/10/29 00:49:26;;;;;;;;;;;;;;;15.88;76.77;99361.91;300819;32;3493;-78
2023/10/29 00:49:36;;;;;;;;;;;;;;;15.87;76.80;99363.72;298795;32;5868;-78
2023/10/29 00:49:48;;;;;;;;;;;;;;;15.88;76.86;99357.50;303241;32;1403;-78
2023/10/29 00:49:58;;;;;;;;;;;;;;;15.86;76.87;99362.03;299417;32;6104;-78
2023/10/29 00:50:08;;;;;;;;;;;;;;;15.85;76.96;99368.25;296825;32;6010;-77
2023/10/29 00:50:19;;;;;;;;;;;;;;;15.85;76.80;99364.75;298289;33;1020;-77
2023/10/29 00:50:29;;;;;;;;;;;;;;;15.83;76.94;99359.59;294374;33;6761;-77
2023/10/29 00:50:39;;;;;;;;;;;;;;;15.83;77.00;99366.66;293632;33;6308;-77
2023/10/29 00:50:49;;;;;;;;;;;;;;;15.82;77.01;99359.69;291335;34;1425;-77
2023/10/29 00:51:00;;;;;;;;;;;;;;;15.81;77.23;99358.84;292029;33;5976;-77
2023/10/29 00:51:10;;;;;;;;;;;;;;;15.80;77.05;99366.84;291639;33;4524;-77
2023/10/29 00:51:20;;;;;;;;;;;;;;;15.80;77.08;99364.22;288994;34;4595;-77
2023/10/29 00:51:31;;;;;;;;;;;;;;;15.78;77.05;99363.47;289345;34;832;-77
2023/10/29 00:51:41;;;;;;;;;;;;;;;15.78;77.18;99363.47;284350;34;6855;-77
2023/10/29 00:51:51;;;;;;;;;;;;;;;15.78;77.05;99360.84;283991;33;8150;-77
2023/10/29 00:52:02;;;;;;;;;;;;;;;15.76;76.79;99365.38;289339;34;1310;-78
2023/10/29 00:52:13;;;;;;;;;;;;;;;15.78;76.80;99360.84;283817;34;8133;-77
2023/10/29 00:52:23;;;;;;;;;;;;;;;15.77;77.08;99364.41;283247;34;8212;-77
2023/10/29 00:52:34;;;;;;;;;;;;;;;15.78;76.89;99366.13;286574;34;1261;-77
2023/10/29 00:52:45;;;;;;;;;;;;;;;15.76;77.08;99365.38;285788;34;10606;-77
2023/10/29 00:52:55;;;;;;;;;;;;;;;15.75;77.27;99367.16;284402;34;9262;-76
2023/10/29 00:53:06;;;;;;;;;;;;;;;15.74;77.38;99368.09;283161;34;8045;-77
2023/10/29 00:53:16;;;;;;;;;;;;;;;15.75;77.46;99364.53;283599;34;1253;-77
2023/10/29 00:55:28;;;;;;;;;;;;;;;15.79;77.70;99367.81;2498339;27;20643;-77
2023/10/29 00:55:38;;;;;;;;;;;;;;;15.77;77.79;99364.41;354644;27;1421;-77
2023/10/29 00:55:48;;;;;;;;;;;;;;;15.78;77.81;99360.84;353322;28;779;-77
2023/10/29 00:55:59;;;;;;;;;;;;;;;15.78;77.81;99352.91;351990;28;753;-77
2023/10/29 00:56:09;;;;;;;;;;;;;;;15.78;77.67;99360.84;350300;28;1195;-78
2023/10/29 00:56:19;;;;;;;;;;;;;;;15.77;77.84;99364.41;351828;28;1321;-78
2023/10/29 00:56:30;;;;;;;;;;;;;;;15.74;77.98;99356.72;353357;28;842;-78
2023/10/29 00:56:41;;;;;;;;;;;;;;;15.75;78.23;99361.03;349126;28;1205;-78
2023/10/29 00:56:53;;;;;;;;;;;;;;;15.72;78.35;99358.59;351530;28;1199;-78
2023/10/29 00:57:03;;;;;;;;;;;;;;;15.71;78.23;99360.38;350591;28;1353;-78
2023/10/29 00:57:14;;;;;;;;;;;;;;;15.72;78.21;99361.25;350202;28;1317;-78
2023/10/29 00:57:24;;;;;;;;;;;;;;;15.71;78.36;99356.91;348520;28;2730;-78
2023/10/29 00:57:35;;;;;;;;;;;;;;;15.71;78.21;99357.75;349976;28;3223;-78
2023/10/29 00:57:45;;;;;;;;;;;;;;;15.70;78.35;99357.84;349737;28;3095;-78
2023/10/29 00:57:55;;;;;;;;;;;;;;;15.71;78.02;99364.81;348833;28;3245;-78
2023/10/29 00:58:05;;;;;;;;;;;;;;;15.72;77.79;99363.88;347539;28;3265;-78
2023/10/29 00:58:16;;;;;;;;;;;;;;;15.72;77.61;99350.69;350456;28;1321;-78
2023/10/29 00:58:26;;;;;;;;;;;;;;;15.72;77.80;99355.97;351826;28;813;-78
2023/10/29 00:58:37;;;;;;;;;;;;;;;15.72;77.80;99362.09;350338;28;1314;-78
2023/10/29 00:58:47;;;;;;;;;;;;;;;15.71;77.84;99360.38;347687;28;1342;-78
2023/10/29 00:58:58;;;;;;;;;;;;;;;15.70;77.74;99352.56;347562;28;1245;-78
2023/10/29 00:59:11;;;;;;;;;;;;;;;15.71;77.86;99362.19;351265;28;1449;-78
2023/10/29 00:59:22;;;;;;;;;;;;;;;15.70;77.71;99360.50;350551;28;1136;-78
2023/10/29 00:59:32;;;;;;;;;;;;;;;15.69;78.01;99361.44;348787;28;1341;-78
2023/10/29 00:59:42;;;;;;;;;;;;;;;15.69;77.87;99362.28;346323;28;1271;-77
2023/10/29 00:59:53;;;;;;;;;;;;;;;15.69;77.94;99350.88;347045;28;1105;-77
2023/10/29 01:00:06;;;;;;;;;;;;;;;15.69;77.84;99356.16;345028;28;765;-77
2023/10/29 01:00:21;;;;;;;;;;;;;;;15.70;77.75;99352.56;347595;28;1371;-77
2023/10/29 01:00:31;;;;;;;;;;;;;;;15.71;77.85;99354.28;344836;28;1372;-77
2023/10/29 01:00:41;;;;;;;;;;;;;;;15.72;77.77;99353.31;344951;28;1216;-77
2023/10/29 01:00:51;;;;;;;;;;;;;;;15.71;77.74;99354.28;346191;28;1320;-77
2023/10/29 01:01:02;;;;;;;;;;;;;;;15.71;77.48;99357.75;349886;28;1434;-78
2023/10/29 01:01:12;;;;;;;;;;;;;;;15.72;77.49;99361.25;346253;28;1218;-78